Terminal Aerodrome Forecast
Issued by NWS

Home | Current Version | Previous Version | Text Only | Print | Product List | Glossary On
Versions: 1 2 3 4 5 6 7 8 9 10 11 12 13
000
FTUS44 KBMX 180538
TAFANB
TAF
KANB 180538Z 1806/1906 05004KT 3SM BR OVC005
     FM180800 05003KT 1/2SM FG OVC003
     FM181500 34002KT 4SM BR OVC006
     FM181800 24003KT P6SM BKN015
     FM182000 26004KT P6SM SCT015 SCT050=

USA.gov is the U.S. government's official web portal to all federal, state and local government web resources and services.